createdAt,value
2019-05-05T00:00:38.547Z,92.36
2019-05-05T00:03:11.576Z,92.72
2019-05-05T00:05:44.339Z,92.96
2019-05-05T00:08:15.255Z,93.25
2019-05-05T00:10:45.692Z,93.88
2019-05-05T00:13:22.149Z,94.50
2019-05-05T00:16:02.090Z,94.49
2019-05-05T00:18:31.333Z,94.66
2019-05-05T00:21:00.080Z,94.47
2019-05-05T00:23:29.685Z,94.21
2019-05-05T00:25:58.547Z,93.70
2019-05-05T00:28:27.346Z,93.70
2019-05-05T00:30:56.238Z,93.74
2019-05-05T00:33:25.081Z,93.50
2019-05-05T00:35:54.510Z,93.49
2019-05-05T00:38:24.863Z,93.33
2019-05-05T00:40:55.484Z,93.73
2019-05-05T00:43:25.372Z,94.05
2019-05-05T00:45:56.538Z,94.24
2019-05-05T00:48:30.359Z,94.21
2019-05-05T00:50:59.166Z,94.12
2019-05-05T00:53:28.125Z,93.76
2019-05-05T00:55:56.944Z,93.78
2019-05-05T00:58:26.307Z,94.05
2019-05-05T01:00:56.830Z,94.11
2019-05-05T01:03:26.174Z,93.94
2019-05-05T01:05:56.486Z,93.40
2019-05-05T01:08:26.862Z,93.08
2019-05-05T01:10:55.706Z,93.25
2019-05-05T01:13:24.734Z,93.33
2019-05-05T01:15:54.199Z,93.42
2019-05-05T01:18:24.566Z,93.47
2019-05-05T01:20:55.240Z,93.72
2019-05-05T01:23:24.438Z,93.71
2019-05-05T01:25:54.389Z,93.65
2019-05-05T01:28:24.957Z,93.87
2019-05-05T01:30:55.571Z,94.29
2019-05-05T01:33:25.890Z,94.63
2019-05-05T01:35:55.287Z,94.59
2019-05-05T01:38:42.019Z,94.33
2019-05-05T01:41:25.312Z,94.25
2019-05-05T01:43:54.271Z,94.36
2019-05-05T01:46:24.553Z,94.61
2019-05-05T01:48:54.910Z,94.44
2019-05-05T01:51:24.807Z,94.69
2019-05-05T01:53:54.550Z,94.96
2019-05-05T01:56:24.694Z,94.92
2019-05-05T01:58:54.756Z,95.25
2019-05-05T02:01:24.681Z,95.46
2019-05-05T02:03:54.855Z,95.46
2019-05-05T02:06:24.877Z,95.53
2019-05-05T02:08:54.778Z,95.58
2019-05-05T02:11:24.712Z,95.49
2019-05-05T02:13:54.591Z,95.59
2019-05-05T02:16:25.359Z,95.66
2019-05-05T02:18:54.506Z,95.65
2019-05-05T02:21:24.712Z,95.89
2019-05-05T02:23:54.777Z,96.16
2019-05-05T02:26:24.506Z,96.14
2019-05-05T02:29:11.300Z,96.28
2019-05-05T02:31:41.740Z,96.43
2019-05-05T02:34:11.688Z,96.65
2019-05-05T02:36:40.489Z,96.71
2019-05-05T02:39:10.906Z,96.67
2019-05-05T02:41:40.656Z,96.77
2019-05-05T02:44:09.701Z,96.74
2019-05-05T02:46:40.006Z,96.83
2019-05-05T02:49:09.677Z,96.91
2019-05-05T02:51:39.266Z,97.01
2019-05-05T02:54:08.353Z,97.05
2019-05-05T02:56:46.470Z,97.12
2019-05-05T02:59:17.841Z,97.09
2019-05-05T03:01:54.386Z,97.08
2019-05-05T03:04:24.506Z,97.18
2019-05-05T03:06:56.376Z,97.19
2019-05-05T03:09:27.353Z,97.41
2019-05-05T03:11:58.367Z,97.35
2019-05-05T03:14:28.755Z,97.37
2019-05-05T03:16:57.811Z,97.19
2019-05-05T03:19:26.746Z,97.05
2019-05-05T03:21:56.325Z,97.05
2019-05-05T03:24:25.503Z,96.96
2019-05-05T03:26:54.445Z,97.01
2019-05-05T03:29:24.363Z,97.02
2019-05-05T03:31:56.361Z,97.40
2019-05-05T03:34:24.200Z,97.44
2019-05-05T03:36:53.788Z,97.41
2019-05-05T03:39:24.629Z,97.56
2019-05-05T03:41:55.454Z,97.93
2019-05-05T03:44:25.972Z,97.93
2019-05-05T03:46:55.675Z,97.81
2019-05-05T03:49:24.716Z,97.83
2019-05-05T03:51:54.320Z,97.89
2019-05-05T03:54:23.898Z,98.05
2019-05-05T03:56:54.574Z,98.04
2019-05-05T03:59:24.341Z,98.04
2019-05-05T04:02:10.860Z,98.14
2019-05-05T04:04:41.197Z,98.06
2019-05-05T04:07:10.078Z,98.15
2019-05-05T04:09:38.821Z,98.22
2019-05-05T04:12:08.067Z,98.04
2019-05-05T04:14:38.079Z,98.16
2019-05-05T04:17:17.085Z,98.28
2019-05-05T04:19:56.373Z,98.37
2019-05-05T04:22:25.114Z,98.14
2019-05-05T04:24:54.258Z,97.78
2019-05-05T04:27:23.880Z,97.42
2019-05-05T04:29:54.486Z,97.45
2019-05-05T04:32:24.448Z,97.47
2019-05-05T04:34:54.302Z,97.20
2019-05-05T04:37:23.931Z,96.87
2019-05-05T04:39:53.709Z,96.87
2019-05-05T04:42:24.478Z,97.01
2019-05-05T04:44:53.834Z,96.81
2019-05-05T04:47:27.277Z,96.66
2019-05-05T04:50:00.368Z,96.65
2019-05-05T04:52:34.325Z,96.56
2019-05-05T04:55:04.454Z,96.48
2019-05-05T04:57:35.460Z,96.39
2019-05-05T05:00:05.340Z,96.26
2019-05-05T05:02:36.249Z,96.34
2019-05-05T05:05:07.942Z,95.97
2019-05-05T05:07:36.699Z,95.97
2019-05-05T05:10:06.926Z,95.99
2019-05-05T05:12:35.826Z,95.93
2019-05-05T05:15:05.882Z,95.92
2019-05-05T05:17:54.315Z,95.49
2019-05-05T05:20:28.988Z,95.55
2019-05-05T05:22:57.786Z,95.41
2019-05-05T05:25:26.581Z,94.93
2019-05-05T05:27:57.753Z,94.92
2019-05-05T05:30:26.825Z,94.55
2019-05-05T05:32:55.582Z,94.09
2019-05-05T05:35:24.576Z,93.58
2019-05-05T05:37:53.986Z,92.59
2019-05-05T05:40:41.675Z,91.57
2019-05-05T05:43:13.811Z,91.38
2019-05-05T05:45:44.293Z,90.32
2019-05-05T05:48:29.815Z,86.82
2019-05-05T05:51:00.149Z,78.66
2019-05-05T05:53:29.026Z,71.09
2019-05-05T05:55:57.840Z,69.93
2019-05-05T05:58:26.642Z,70.03
2019-05-05T06:00:56.765Z,68.83
2019-05-05T06:03:25.885Z,69.04
2019-05-05T06:05:54.774Z,67.16
2019-05-05T06:08:24.327Z,66.41
2019-05-05T06:10:54.665Z,65.92
2019-05-05T06:13:24.178Z,66.99
2019-05-05T06:15:53.673Z,66.54
2019-05-05T06:18:24.359Z,62.58
2019-05-05T06:20:53.772Z,61.22
2019-05-05T06:23:24.058Z,63.03
2019-05-05T06:25:55.157Z,62.67
2019-05-05T06:28:23.758Z,62.21
2019-05-05T06:30:54.641Z,61.35
2019-05-05T06:33:24.186Z,61.99
2019-05-05T06:35:53.544Z,61.87
2019-05-05T06:38:24.197Z,61.87
2019-05-05T06:40:57.705Z,60.82
2019-05-05T06:43:44.143Z,62.22
2019-05-05T06:46:14.713Z,61.45
2019-05-05T06:48:43.932Z,61.34
2019-05-05T06:51:14.043Z,59.86
2019-05-05T06:53:44.034Z,58.00
2019-05-05T06:56:14.621Z,57.89
2019-05-05T06:58:44.813Z,56.98
2019-05-05T07:01:14.335Z,55.39
2019-05-05T07:03:43.942Z,58.79
2019-05-05T07:06:14.655Z,55.53
2019-05-05T07:08:43.895Z,57.32
2019-05-05T07:11:14.567Z,58.72
2019-05-05T07:13:44.330Z,58.36
2019-05-05T07:16:14.915Z,59.22
2019-05-05T07:18:44.556Z,61.08
2019-05-05T07:21:14.355Z,58.06
2019-05-05T07:23:44.506Z,59.29
2019-05-05T07:26:14.395Z,60.05
2019-05-05T07:28:44.745Z,61.56
2019-05-05T07:31:14.390Z,63.63
2019-05-05T07:33:43.859Z,65.37
2019-05-05T07:36:17.071Z,64.94
2019-05-05T07:38:47.437Z,68.51
2019-05-05T07:41:16.299Z,69.05
2019-05-05T07:43:45.480Z,67.31
2019-05-05T07:46:14.393Z,63.70
2019-05-05T07:48:44.203Z,63.56
2019-05-05T07:51:14.109Z,63.56
2019-05-05T07:53:44.274Z,64.27
2019-05-05T07:56:14.515Z,61.55
2019-05-05T07:58:45.071Z,63.03
2019-05-05T08:01:14.604Z,55.33
2019-05-05T08:03:44.609Z,54.75
2019-05-05T08:06:14.765Z,57.51
2019-05-05T08:08:44.453Z,51.25
2019-05-05T08:11:15.393Z,52.07
2019-05-05T08:13:44.651Z,51.80
2019-05-05T08:16:16.127Z,56.71
2019-05-05T08:19:03.867Z,50.08
2019-05-05T08:21:34.684Z,51.68
2019-05-05T08:24:07.286Z,53.82
2019-05-05T08:26:44.268Z,52.09
2019-05-05T08:29:23.999Z,62.72
2019-05-05T08:31:54.458Z,65.13
2019-05-05T08:34:24.496Z,70.31
2019-05-05T08:36:53.888Z,73.95
2019-05-05T08:39:24.435Z,77.07
2019-05-05T08:41:54.091Z,76.50
2019-05-05T08:44:34.253Z,77.89
2019-05-05T08:47:04.431Z,76.95
2019-05-05T08:49:34.707Z,75.96
2019-05-05T08:52:04.138Z,76.58
2019-05-05T08:54:34.342Z,74.47
2019-05-05T08:57:04.205Z,73.56
2019-05-05T08:59:33.765Z,72.55
2019-05-05T09:02:04.544Z,75.23
2019-05-05T09:04:35.195Z,75.80
2019-05-05T09:07:04.987Z,79.15
2019-05-05T09:09:33.940Z,81.93
2019-05-05T09:12:04.563Z,78.69
2019-05-05T09:14:34.590Z,81.28
2019-05-05T09:17:04.420Z,79.41
2019-05-05T09:19:34.436Z,78.46
2019-05-05T09:22:06.725Z,73.64
2019-05-05T09:24:35.542Z,74.00
2019-05-05T09:27:14.232Z,71.00
2019-05-05T09:29:44.125Z,67.45
2019-05-05T09:32:13.903Z,67.73
2019-05-05T09:34:43.576Z,65.22
2019-05-05T09:37:14.394Z,67.09
2019-05-05T09:39:43.814Z,70.00
2019-05-05T09:42:14.569Z,67.05
2019-05-05T09:44:43.887Z,68.21
2019-05-05T09:47:13.654Z,60.11
2019-05-05T09:49:44.597Z,57.03
2019-05-05T09:52:24.614Z,53.41
2019-05-05T09:54:55.608Z,55.09
2019-05-05T09:57:24.346Z,53.86
2019-05-05T09:59:54.778Z,52.23
2019-05-05T10:02:24.001Z,54.75
2019-05-05T10:04:54.687Z,57.47
2019-05-05T10:07:24.358Z,60.80
2019-05-05T10:09:54.215Z,63.22
2019-05-05T10:12:23.118Z,63.94
2019-05-05T10:14:54.044Z,64.35
2019-05-05T10:17:24.401Z,63.88
2019-05-05T10:19:54.690Z,63.16
2019-05-05T10:22:23.998Z,62.56
2019-05-05T10:24:57.696Z,52.75
2019-05-05T10:27:26.562Z,54.24
2019-05-05T10:29:55.479Z,51.83
2019-05-05T10:32:24.692Z,51.64
2019-05-05T10:35:01.157Z,47.48
2019-05-05T10:37:34.647Z,47.67
2019-05-05T10:40:13.407Z,46.39
2019-05-05T10:42:54.073Z,47.93
2019-05-05T10:45:37.137Z,53.69
2019-05-05T10:48:15.775Z,54.61
2019-05-05T10:50:46.356Z,55.41
2019-05-05T10:53:15.128Z,55.89
2019-05-05T10:55:58.468Z,56.06
2019-05-05T10:58:28.298Z,54.43
2019-05-05T11:00:59.349Z,53.23
2019-05-05T11:03:28.109Z,51.58
2019-05-05T11:05:57.306Z,52.58
2019-05-05T11:08:26.049Z,50.82
2019-05-05T11:10:54.840Z,50.77
2019-05-05T11:13:24.102Z,51.78
2019-05-05T11:15:54.693Z,49.57
2019-05-05T11:18:23.826Z,50.34
2019-05-05T11:20:54.807Z,50.88
2019-05-05T11:23:24.919Z,48.75
2019-05-05T11:25:54.521Z,47.56
2019-05-05T11:28:23.399Z,48.84
2019-05-05T11:30:53.748Z,47.61
2019-05-05T11:33:27.177Z,49.77
2019-05-05T11:36:04.436Z,52.33
2019-05-05T11:38:33.972Z,48.42
2019-05-05T11:41:04.776Z,48.79
2019-05-05T11:43:33.907Z,48.32
2019-05-05T11:46:02.815Z,47.99
2019-05-05T11:48:31.586Z,49.62
2019-05-05T11:51:01.383Z,47.96
2019-05-05T11:53:30.218Z,45.64
2019-05-05T11:55:59.182Z,44.06
2019-05-05T11:58:28.038Z,43.18
2019-05-05T12:00:56.826Z,44.34
2019-05-05T12:03:25.648Z,43.17
2019-05-05T12:05:54.876Z,43.11
2019-05-05T12:08:23.959Z,43.67
2019-05-05T12:11:08.050Z,41.68
2019-05-05T12:13:37.749Z,44.25
2019-05-05T12:16:06.921Z,39.73
2019-05-05T12:18:36.012Z,39.18
2019-05-05T12:21:05.426Z,38.21
2019-05-05T12:23:37.310Z,39.07
2019-05-05T12:26:27.185Z,39.82
2019-05-05T12:28:57.693Z,42.40
2019-05-05T12:31:29.014Z,46.51
2019-05-05T12:33:57.980Z,50.71
2019-05-05T12:36:26.861Z,53.14
2019-05-05T12:38:55.666Z,53.68
2019-05-05T12:41:24.455Z,53.64
2019-05-05T12:43:54.823Z,54.68
2019-05-05T12:46:25.711Z,54.53
2019-05-05T12:48:56.055Z,52.33
2019-05-05T12:51:25.882Z,50.42
2019-05-05T12:53:59.222Z,50.52
2019-05-05T12:56:30.040Z,50.31
2019-05-05T12:59:00.619Z,50.76
2019-05-05T13:01:33.593Z,48.98
2019-05-05T13:04:05.519Z,46.77
2019-05-05T13:06:34.712Z,48.26
2019-05-05T13:09:04.943Z,47.26
2019-05-05T13:11:37.197Z,46.43
2019-05-05T13:14:09.061Z,49.38
2019-05-05T13:16:49.810Z,47.91
2019-05-05T13:19:14.613Z,47.08
2019-05-05T13:21:48.114Z,46.49
2019-05-05T13:24:34.347Z,46.99
2019-05-05T13:27:10.059Z,44.39
2019-05-05T13:29:35.517Z,42.67
2019-05-05T13:32:05.792Z,42.43
2019-05-05T13:34:34.734Z,43.44
2019-05-05T13:37:04.484Z,44.00
2019-05-05T13:39:34.119Z,44.43
2019-05-05T13:42:04.578Z,45.32
2019-05-05T13:44:53.405Z,46.93
2019-05-05T13:47:23.837Z,48.96
2019-05-05T13:49:54.859Z,52.71
2019-05-05T13:52:24.480Z,56.78
2019-05-05T13:54:54.338Z,56.27
2019-05-05T13:57:25.001Z,59.09
2019-05-05T13:59:54.546Z,63.68
2019-05-05T14:02:24.511Z,59.44
2019-05-05T14:04:54.887Z,59.42
2019-05-05T14:07:24.139Z,59.07
2019-05-05T14:09:54.928Z,56.59
2019-05-05T14:12:24.565Z,55.85
2019-05-05T14:14:54.604Z,51.68
2019-05-05T14:17:25.905Z,50.38
2019-05-05T14:20:04.694Z,49.59
2019-05-05T14:22:25.834Z,50.63
2019-05-05T14:24:57.556Z,48.49
2019-05-05T14:27:26.371Z,48.06
2019-05-05T14:29:56.887Z,47.28
2019-05-05T14:32:27.919Z,48.47
2019-05-05T14:34:58.265Z,47.71
2019-05-05T14:37:29.565Z,48.49
2019-05-05T14:39:58.901Z,48.35
2019-05-05T14:42:28.878Z,47.40
2019-05-05T14:44:58.257Z,50.36
2019-05-05T14:47:27.133Z,49.04
2019-05-05T14:49:56.130Z,48.56
2019-05-05T14:52:25.122Z,47.42
2019-05-05T14:54:58.430Z,50.21
2019-05-05T14:57:30.245Z,47.73
2019-05-05T14:59:59.733Z,46.93
2019-05-05T15:02:29.715Z,46.18
2019-05-05T15:05:00.243Z,50.31
2019-05-05T15:07:38.111Z,49.34
2019-05-05T15:10:24.090Z,49.25
2019-05-05T15:12:54.549Z,48.89
2019-05-05T15:15:24.991Z,47.12
2019-05-05T15:17:55.720Z,47.45
2019-05-05T15:20:24.633Z,46.88
2019-05-05T15:22:58.995Z,45.70
2019-05-05T15:25:29.873Z,46.42
2019-05-05T15:27:58.840Z,44.66
2019-05-05T15:30:34.733Z,44.39
2019-05-05T15:33:13.646Z,46.35
2019-05-05T15:35:53.864Z,43.53
2019-05-05T15:38:27.381Z,47.01
2019-05-05T15:41:06.893Z,45.02
2019-05-05T15:43:44.149Z,42.18
2019-05-05T15:46:24.436Z,40.22
2019-05-05T15:49:01.489Z,44.06
2019-05-05T15:51:36.846Z,46.09
2019-05-05T15:54:18.624Z,47.01
2019-05-05T15:57:05.312Z,48.94
2019-05-05T15:59:34.786Z,49.87
2019-05-05T16:02:04.335Z,50.40
2019-05-05T16:04:34.161Z,51.07
2019-05-05T16:07:04.665Z,50.88
2019-05-05T16:09:33.678Z,52.06
2019-05-05T16:12:03.779Z,51.41
2019-05-05T16:14:34.395Z,50.00
2019-05-05T16:17:21.125Z,50.55
2019-05-05T16:20:00.621Z,51.57
2019-05-05T16:22:31.253Z,51.85
2019-05-05T16:25:14.210Z,52.34
2019-05-05T16:27:44.564Z,53.54
2019-05-05T16:30:18.789Z,55.45
2019-05-05T16:32:47.557Z,54.38
2019-05-05T16:35:16.681Z,52.37
2019-05-05T16:37:45.462Z,53.76
2019-05-05T16:40:16.544Z,53.49
2019-05-05T16:42:45.869Z,52.42
2019-05-05T16:45:16.447Z,52.32
2019-05-05T16:47:45.342Z,51.59
2019-05-05T16:50:16.710Z,50.15
2019-05-05T16:52:57.115Z,50.51
2019-05-05T16:55:27.889Z,51.03
2019-05-05T16:57:56.696Z,51.85
2019-05-05T17:00:25.880Z,53.88
2019-05-05T17:02:57.411Z,53.97
2019-05-05T17:05:26.172Z,54.15
2019-05-05T17:07:55.848Z,53.66
2019-05-05T17:10:25.648Z,54.45
2019-05-05T17:12:57.242Z,55.25
2019-05-05T17:15:35.358Z,55.11
2019-05-05T17:18:32.872Z,55.38
2019-05-05T17:21:01.212Z,56.48
2019-05-05T17:23:31.002Z,57.29
2019-05-05T17:25:59.989Z,57.01
2019-05-05T17:28:28.753Z,57.87
2019-05-05T17:30:59.185Z,57.63
2019-05-05T17:33:28.434Z,58.48
2019-05-05T17:35:57.247Z,58.03
2019-05-05T17:38:29.159Z,57.75
2019-05-05T17:40:59.831Z,57.99
2019-05-05T17:43:48.051Z,58.88
2019-05-05T17:46:21.200Z,58.04
2019-05-05T17:49:07.512Z,57.78
2019-05-05T17:51:40.926Z,57.06
2019-05-05T17:54:16.996Z,56.95
2019-05-05T17:56:45.794Z,57.34
2019-05-05T17:59:14.815Z,58.06
2019-05-05T18:01:44.242Z,58.99
2019-05-05T18:04:13.580Z,60.22
2019-05-05T18:06:45.671Z,59.87
2019-05-05T18:09:16.156Z,59.86
2019-05-05T18:11:49.590Z,62.36
2019-05-05T18:14:35.032Z,62.09
2019-05-05T18:17:04.271Z,63.24
2019-05-05T18:19:34.039Z,62.98
2019-05-05T18:22:02.924Z,63.63
2019-05-05T18:24:33.682Z,61.87
2019-05-05T18:27:04.424Z,63.03
2019-05-05T18:29:34.004Z,63.50
2019-05-05T18:32:04.357Z,63.36
2019-05-05T18:34:33.365Z,63.41
2019-05-05T18:37:03.728Z,61.58
2019-05-05T18:39:34.274Z,62.85
2019-05-05T18:42:05.003Z,64.84
2019-05-05T18:44:41.340Z,63.98
2019-05-05T18:47:14.893Z,63.56
2019-05-05T18:49:42.477Z,65.71
2019-05-05T18:52:11.406Z,66.15
2019-05-05T18:54:40.198Z,65.23
2019-05-05T18:57:09.558Z,64.77
2019-05-05T18:59:38.349Z,66.09
2019-05-05T19:02:08.927Z,65.62
2019-05-05T19:04:41.999Z,67.04
2019-05-05T19:07:15.354Z,67.25
2019-05-05T19:09:53.632Z,68.62
2019-05-05T19:12:14.822Z,67.79
2019-05-05T19:14:44.292Z,67.84
2019-05-05T19:17:14.190Z,69.53
2019-05-05T19:19:47.087Z,69.67
2019-05-05T19:22:16.207Z,70.00
2019-05-05T19:24:45.145Z,69.92
2019-05-05T19:27:14.253Z,70.23
2019-05-05T19:29:44.159Z,71.37
2019-05-05T19:32:14.206Z,72.09
2019-05-05T19:34:43.970Z,71.69
2019-05-05T19:37:13.996Z,72.54
2019-05-05T19:39:42.894Z,72.05
2019-05-05T19:42:11.682Z,72.58
2019-05-05T19:44:40.533Z,72.77
2019-05-05T19:47:11.044Z,73.19
2019-05-05T19:49:41.427Z,72.53
2019-05-05T19:52:10.409Z,72.49
2019-05-05T19:54:39.459Z,73.04
2019-05-05T19:57:08.459Z,72.95
2019-05-05T19:59:37.383Z,73.14
2019-05-05T20:02:07.697Z,73.46
2019-05-05T20:04:36.602Z,73.79
2019-05-05T20:07:05.496Z,74.85
2019-05-05T20:09:34.283Z,75.29
2019-05-05T20:12:04.043Z,75.16
2019-05-05T20:14:34.256Z,75.34
2019-05-05T20:17:17.577Z,75.59
2019-05-05T20:19:46.925Z,75.89
2019-05-05T20:22:23.652Z,76.17
2019-05-05T20:24:54.111Z,76.26
2019-05-05T20:27:23.567Z,75.93
2019-05-05T20:29:52.883Z,76.55
2019-05-05T20:32:25.641Z,77.06
2019-05-05T20:35:03.937Z,77.11
2019-05-05T20:37:39.672Z,77.64
2019-05-05T20:40:14.694Z,77.08
2019-05-05T20:42:44.774Z,77.54
2019-05-05T20:45:17.815Z,78.34
2019-05-05T20:47:49.418Z,78.45
2019-05-05T20:50:18.813Z,78.30
2019-05-05T20:52:47.810Z,78.60
2019-05-05T20:55:17.064Z,78.61
2019-05-05T20:57:50.514Z,77.97
2019-05-05T21:00:20.171Z,78.16
2019-05-05T21:02:49.629Z,78.21
2019-05-05T21:05:20.356Z,78.15
2019-05-05T21:08:01.512Z,77.53
2019-05-05T21:10:31.339Z,77.00
2019-05-05T21:13:00.073Z,77.87
2019-05-05T21:15:29.659Z,77.93
2019-05-05T21:17:58.645Z,78.05
2019-05-05T21:20:30.833Z,78.51
2019-05-05T21:23:07.556Z,78.87
2019-05-05T21:25:37.860Z,78.74
2019-05-05T21:28:06.656Z,79.12
2019-05-05T21:30:35.635Z,79.16
2019-05-05T21:33:05.060Z,79.19
2019-05-05T21:35:34.942Z,79.47
2019-05-05T21:38:04.775Z,79.63
2019-05-05T21:40:34.615Z,79.28
2019-05-05T21:43:04.984Z,79.42
2019-05-05T21:45:34.671Z,79.68
2019-05-05T21:48:04.438Z,80.21
2019-05-05T21:50:37.909Z,80.21
2019-05-05T21:53:08.310Z,80.27
2019-05-05T21:55:55.131Z,81.05
2019-05-05T21:58:25.523Z,80.88
2019-05-05T22:00:56.100Z,81.72
2019-05-05T22:03:37.849Z,81.64
2019-05-05T22:06:06.714Z,82.07
2019-05-05T22:08:35.969Z,81.91
2019-05-05T22:11:05.876Z,81.72
2019-05-05T22:13:36.609Z,82.04
2019-05-05T22:16:06.310Z,82.05
2019-05-05T22:18:35.976Z,82.09
2019-05-05T22:21:16.746Z,82.23
2019-05-05T22:23:48.138Z,82.04
2019-05-05T22:26:17.671Z,81.90
2019-05-05T22:28:47.323Z,81.83
2019-05-05T22:31:16.991Z,81.90
2019-05-05T22:33:46.574Z,81.58
2019-05-05T22:36:16.365Z,81.80
2019-05-05T22:38:46.090Z,81.86
2019-05-05T22:41:15.923Z,81.51
2019-05-05T22:43:45.662Z,81.59
2019-05-05T22:46:15.372Z,81.39
2019-05-05T22:48:45.034Z,81.39
2019-05-05T22:51:14.684Z,81.43
2019-05-05T22:53:44.356Z,81.75
2019-05-05T22:56:14.778Z,81.59
2019-05-05T22:58:44.456Z,81.41
2019-05-05T23:01:14.270Z,81.32
2019-05-05T23:04:03.645Z,81.92
2019-05-05T23:06:34.721Z,81.25
2019-05-05T23:09:05.522Z,81.77
2019-05-05T23:11:35.228Z,81.62
2019-05-05T23:14:24.758Z,81.80
2019-05-05T23:16:55.854Z,81.59
2019-05-05T23:19:26.965Z,81.51
2019-05-05T23:21:57.417Z,81.70
2019-05-05T23:24:30.423Z,81.71
2019-05-05T23:26:59.187Z,82.01
2019-05-05T23:29:28.161Z,81.61
2019-05-05T23:31:56.932Z,81.94
2019-05-05T23:34:25.767Z,82.02
2019-05-05T23:36:54.567Z,81.95
2019-05-05T23:39:24.305Z,82.13
2019-05-05T23:41:54.686Z,82.15
2019-05-05T23:44:23.862Z,82.09
2019-05-05T23:46:53.804Z,82.02
2019-05-05T23:49:24.241Z,82.29
2019-05-05T23:51:53.919Z,82.34
2019-05-05T23:54:24.581Z,82.34
2019-05-05T23:56:53.990Z,82.76
2019-05-05T23:59:24.103Z,83.08
